createdAt,value
2023-08-04T02:36:56.239Z,18.52
2023-08-04T02:39:26.398Z,18.88
2023-08-04T02:42:02.349Z,14.70
2023-08-04T02:44:33.255Z,19.50
2023-08-04T02:47:03.493Z,16.67
2023-08-04T02:49:34.406Z,13.30
2023-08-04T02:52:04.345Z,13.10
2023-08-04T02:54:35.510Z,14.38
2023-08-04T02:57:04.874Z,13.85
2023-08-04T02:59:34.633Z,16.60
2023-08-04T03:02:03.714Z,13.65
2023-08-04T03:04:32.778Z,15.05
2023-08-04T03:07:01.972Z,20.05
2023-08-04T03:09:31.667Z,15.27
2023-08-04T03:12:00.551Z,19.55
2023-08-04T03:14:32.650Z,17.77
2023-08-04T03:17:03.461Z,14.38
2023-08-04T03:19:32.565Z,16.60
2023-08-04T03:22:01.537Z,16.13
2023-08-04T03:24:32.447Z,17.38
2023-08-04T03:27:04.358Z,10.45
2023-08-04T03:29:33.394Z,15.98
2023-08-04T03:32:02.620Z,14.20
2023-08-04T03:34:31.684Z,19.42
2023-08-04T03:37:00.871Z,13.65
2023-08-04T03:39:31.221Z,16.77
2023-08-04T03:42:00.540Z,19.23
2023-08-04T03:44:37.372Z,16.70
2023-08-04T03:47:07.101Z,15.93
2023-08-04T03:49:36.333Z,18.73
2023-08-04T03:52:05.830Z,15.50
2023-08-04T03:54:34.888Z,13.95
2023-08-04T03:57:04.673Z,21.58
2023-08-04T03:59:33.541Z,11.82
2023-08-04T04:02:02.697Z,16.35
2023-08-04T04:04:31.766Z,18.15
2023-08-04T04:07:00.759Z,16.13
2023-08-04T04:09:32.109Z,15.93
2023-08-04T04:12:01.109Z,14.32
2023-08-04T04:14:30.170Z,16.27
2023-08-04T04:16:59.183Z,18.25
2023-08-04T04:19:28.378Z,20.05
2023-08-04T04:22:00.032Z,13.68
2023-08-04T04:24:29.402Z,15.48
2023-08-04T04:27:01.313Z,15.53
2023-08-04T04:29:30.764Z,14.57
2023-08-04T04:31:59.812Z,15.90
2023-08-04T04:34:29.537Z,18.95
2023-08-04T04:37:00.815Z,16.58
2023-08-04T04:39:33.013Z,17.03
2023-08-04T04:42:02.172Z,19.35
2023-08-04T04:44:32.004Z,16.13
2023-08-04T04:47:01.839Z,16.67
2023-08-04T04:49:31.806Z,18.50
2023-08-04T04:52:00.909Z,13.93
2023-08-04T04:54:29.981Z,15.02
2023-08-04T04:56:59.010Z,15.23
2023-08-04T04:59:29.073Z,19.55
2023-08-04T05:01:58.440Z,15.50
2023-08-04T05:04:27.505Z,14.32
2023-08-04T05:06:56.460Z,17.63
2023-08-04T05:09:25.500Z,15.25
2023-08-04T05:11:54.812Z,16.02
2023-08-04T05:14:24.735Z,20.35
2023-08-04T05:16:54.285Z,21.83
2023-08-04T05:19:23.610Z,19.60
2023-08-04T05:21:52.603Z,15.93
2023-08-04T05:24:21.566Z,22.17
2023-08-04T05:26:50.750Z,20.00
2023-08-04T05:29:19.764Z,20.17
2023-08-04T05:31:49.672Z,17.30
2023-08-04T05:34:18.963Z,16.33
2023-08-04T05:36:48.000Z,16.80
2023-08-04T05:39:16.988Z,18.37
2023-08-04T05:41:47.522Z,16.67
2023-08-04T05:44:16.762Z,16.30
2023-08-04T05:46:45.813Z,16.40
2023-08-04T05:49:14.810Z,14.63
2023-08-04T05:51:43.740Z,18.37
2023-08-04T05:54:12.716Z,19.80
2023-08-04T05:56:41.947Z,17.48
2023-08-04T05:59:29.372Z,15.10
2023-08-04T06:01:59.173Z,17.42
2023-08-04T06:04:28.167Z,16.38
2023-08-04T06:06:59.419Z,17.83
2023-08-04T06:09:28.442Z,15.40
2023-08-04T06:11:57.516Z,15.90
2023-08-04T06:14:26.631Z,17.73
2023-08-04T06:16:56.398Z,15.80
2023-08-04T06:19:43.502Z,13.73
2023-08-04T06:22:15.503Z,17.13
2023-08-04T06:24:44.763Z,19.33
2023-08-04T06:27:14.136Z,14.55
2023-08-04T06:29:43.061Z,15.80
2023-08-04T06:32:12.798Z,13.32
2023-08-04T06:34:42.611Z,14.82
2023-08-04T06:37:11.622Z,15.10
2023-08-04T06:39:40.485Z,14.68
2023-08-04T06:42:09.585Z,17.70
2023-08-04T06:44:39.125Z,14.02
2023-08-04T06:47:08.395Z,13.40
2023-08-04T06:49:38.060Z,17.73
2023-08-04T06:52:07.659Z,15.00
2023-08-04T06:54:37.397Z,17.43
2023-08-04T06:57:07.600Z,15.07
2023-08-04T06:59:55.436Z,13.52
2023-08-04T07:02:44.314Z,13.07
2023-08-04T07:05:13.990Z,14.13
2023-08-04T07:07:43.059Z,17.83
2023-08-04T07:10:12.958Z,16.30
2023-08-04T07:12:41.936Z,16.23
2023-08-04T07:15:11.238Z,15.25
2023-08-04T07:17:40.669Z,18.00
2023-08-04T07:20:11.141Z,19.55
2023-08-04T07:22:40.386Z,21.60
2023-08-04T07:25:09.952Z,15.77
2023-08-04T07:27:39.053Z,14.55
2023-08-04T07:30:13.270Z,14.82
2023-08-04T07:32:44.881Z,14.60
2023-08-04T07:35:13.909Z,17.17
2023-08-04T07:37:46.777Z,16.60
2023-08-04T07:40:15.989Z,14.93
2023-08-04T07:42:45.418Z,18.10
2023-08-04T07:45:14.519Z,16.65
2023-08-04T07:47:43.704Z,17.77
2023-08-04T07:50:13.057Z,18.75
2023-08-04T07:52:42.016Z,15.95
2023-08-04T07:55:12.840Z,19.15
2023-08-04T07:57:41.952Z,14.43
2023-08-04T08:00:12.105Z,11.75
2023-08-04T08:02:41.101Z,15.88
2023-08-04T08:05:10.546Z,16.20
2023-08-04T08:07:45.514Z,16.50
2023-08-04T08:10:17.065Z,14.77
2023-08-04T08:12:46.454Z,15.60
2023-08-04T08:15:15.535Z,16.93
2023-08-04T08:17:44.800Z,14.40
2023-08-04T08:23:17.406Z,14.43
2023-08-04T08:25:49.099Z,16.88
2023-08-04T08:28:18.096Z,17.03
2023-08-04T08:30:47.222Z,14.90
2023-08-04T08:33:16.356Z,16.55
2023-08-04T08:35:45.394Z,17.97
2023-08-04T08:38:14.451Z,16.98
2023-08-04T08:41:01.687Z,16.25
2023-08-04T08:43:32.373Z,24.00
2023-08-04T08:46:01.527Z,17.00
2023-08-04T08:48:37.137Z,24.50
2023-08-04T08:51:22.312Z,18.80
2023-08-04T08:53:52.165Z,17.20
2023-08-04T08:56:22.181Z,19.10
2023-08-04T08:58:51.425Z,15.13
2023-08-04T09:01:21.710Z,20.17
2023-08-04T09:03:50.788Z,20.08
2023-08-04T09:06:22.374Z,14.95
2023-08-04T09:08:52.500Z,17.00
2023-08-04T09:11:22.265Z,12.50
2023-08-04T09:13:51.844Z,14.35
2023-08-04T09:16:38.554Z,15.27
2023-08-04T09:19:09.656Z,16.33
2023-08-04T09:21:39.631Z,14.25
2023-08-04T09:24:12.640Z,15.45
2023-08-04T09:26:46.028Z,12.25
2023-08-04T09:29:16.601Z,17.50
2023-08-04T09:31:50.877Z,11.55
2023-08-04T09:34:20.812Z,14.32
2023-08-04T09:36:53.408Z,13.50
2023-08-04T09:39:26.580Z,15.52
2023-08-04T09:41:57.009Z,12.70
2023-08-04T09:44:42.773Z,12.63
2023-08-04T09:47:12.732Z,12.45
2023-08-04T09:49:42.635Z,10.80
2023-08-04T09:52:12.452Z,14.77
2023-08-04T09:54:41.605Z,11.50
2023-08-04T09:57:11.632Z,15.55
2023-08-04T09:59:42.586Z,11.98
2023-08-04T10:02:12.790Z,11.82
2023-08-04T10:04:43.848Z,11.30
2023-08-04T10:07:13.448Z,8.57
2023-08-04T10:09:43.476Z,7.05
2023-08-04T10:12:15.307Z,9.43
2023-08-04T10:14:45.627Z,7.95
2023-08-04T10:17:15.897Z,8.70
2023-08-04T10:19:45.241Z,19.65
2023-08-04T10:22:15.907Z,7.97
2023-08-04T10:24:45.206Z,7.50
2023-08-04T10:27:24.316Z,11.02
2023-08-04T10:30:15.592Z,16.75
2023-08-04T10:32:46.048Z,30.88
2023-08-04T10:35:33.668Z,42.08
2023-08-04T10:38:05.346Z,177.63
2023-08-04T10:40:35.837Z,89.60
2023-08-04T10:43:10.738Z,56.17
2023-08-04T10:46:04.986Z,59.00
2023-08-04T10:48:38.698Z,30.42
2023-08-04T10:51:08.791Z,26.60
2023-08-04T10:53:38.408Z,21.75
2023-08-04T10:56:09.409Z,22.17
2023-08-04T10:58:40.742Z,19.08
2023-08-04T11:01:09.883Z,20.80
2023-08-04T11:03:39.296Z,16.73
2023-08-04T11:06:09.416Z,21.48
2023-08-04T11:08:38.620Z,36.40
2023-08-04T11:11:09.045Z,31.70
2023-08-04T11:13:42.089Z,41.08
2023-08-04T11:16:11.329Z,18.08
2023-08-04T11:18:42.244Z,18.10
2023-08-04T11:21:11.691Z,15.87
2023-08-04T11:23:40.739Z,15.27
2023-08-04T11:26:11.643Z,12.43
2023-08-04T11:28:40.803Z,12.45
2023-08-04T11:31:11.674Z,18.67
2023-08-04T11:33:48.944Z,20.35
2023-08-04T11:36:41.447Z,17.63
2023-08-04T11:39:13.071Z,19.10
2023-08-04T11:41:46.516Z,16.95
2023-08-04T11:44:18.408Z,17.02
2023-08-04T11:46:47.939Z,16.95
2023-08-04T11:49:17.740Z,16.40
2023-08-04T11:51:48.135Z,14.43
2023-08-04T11:54:29.112Z,10.65
2023-08-04T11:57:01.454Z,12.85
2023-08-04T11:59:32.088Z,11.67
2023-08-04T12:02:12.887Z,13.98
2023-08-04T12:04:42.489Z,10.38
2023-08-04T12:07:12.826Z,11.20
2023-08-04T12:09:47.165Z,10.10
2023-08-04T12:12:18.186Z,11.95
2023-08-04T12:15:01.565Z,12.30
2023-08-04T12:17:45.608Z,11.43
2023-08-04T12:20:33.947Z,12.88
2023-08-04T12:23:15.937Z,13.30
2023-08-04T12:25:44.962Z,13.18
2023-08-04T12:28:14.339Z,15.15
2023-08-04T12:30:43.365Z,11.18
2023-08-04T12:33:19.339Z,10.27
2023-08-04T12:35:48.602Z,12.93
2023-08-04T12:38:18.768Z,11.60
2023-08-04T12:40:50.180Z,11.10
2023-08-04T12:43:19.171Z,10.38
2023-08-04T12:45:49.530Z,11.05
2023-08-04T12:48:19.654Z,12.25
2023-08-04T12:50:48.782Z,15.13
2023-08-04T12:53:17.988Z,12.77
2023-08-04T12:55:48.145Z,11.40
2023-08-04T12:58:17.198Z,9.80
2023-08-04T13:00:46.293Z,10.07
2023-08-04T13:03:15.595Z,9.60
2023-08-04T13:05:44.763Z,9.53
2023-08-04T13:08:13.963Z,10.02
2023-08-04T13:10:43.288Z,10.77
2023-08-04T13:13:12.558Z,10.43
2023-08-04T13:15:49.403Z,10.05
2023-08-04T13:18:19.514Z,8.68
2023-08-04T13:20:49.467Z,11.75
2023-08-04T13:23:19.003Z,11.32
2023-08-04T13:25:49.171Z,10.50
2023-08-04T13:28:18.145Z,9.48
2023-08-04T13:30:47.513Z,9.98
2023-08-04T13:33:16.725Z,9.75
